sensor_id;sensor_type;location;lat;lon;timestamp;temperature;humidity
22069;DHT22;13887;57.196;-2.100;2023-04-06T00:01:44;8.98;88.98
22069;DHT22;13887;57.196;-2.100;2023-04-06T00:04:16;9.00;88.78
22069;DHT22;13887;57.196;-2.100;2023-04-06T00:06:43;9.00;88.76
22069;DHT22;13887;57.196;-2.100;2023-04-06T00:09:10;9.00;88.51
22069;DHT22;13887;57.196;-2.100;2023-04-06T00:11:39;9.01;88.55
22069;DHT22;13887;57.196;-2.100;2023-04-06T00:14:06;9.01;88.69
22069;DHT22;13887;57.196;-2.100;2023-04-06T00:16:34;9.01;88.55
22069;DHT22;13887;57.196;-2.100;2023-04-06T00:19:01;8.98;88.68
22069;DHT22;13887;57.196;-2.100;2023-04-06T00:21:28;8.97;89.03
22069;DHT22;13887;57.196;-2.100;2023-04-06T00:23:56;8.96;88.99
22069;DHT22;13887;57.196;-2.100;2023-04-06T00:26:26;8.96;88.88
22069;DHT22;13887;57.196;-2.100;2023-04-06T00:28:54;8.97;88.73
22069;DHT22;13887;57.196;-2.100;2023-04-06T00:31:21;9.00;88.60
22069;DHT22;13887;57.196;-2.100;2023-04-06T00:33:49;8.97;88.57
22069;DHT22;13887;57.196;-2.100;2023-04-06T00:36:17;8.98;88.73
22069;DHT22;13887;57.196;-2.100;2023-04-06T00:38:44;8.98;88.70
22069;DHT22;13887;57.196;-2.100;2023-04-06T00:41:12;9.01;88.44
22069;DHT22;13887;57.196;-2.100;2023-04-06T00:43:39;9.02;88.26
22069;DHT22;13887;57.196;-2.100;2023-04-06T00:46:07;9.00;88.40
22069;DHT22;13887;57.196;-2.100;2023-04-06T00:48:35;8.98;88.36
22069;DHT22;13887;57.196;-2.100;2023-04-06T00:51:02;8.98;88.81
22069;DHT22;13887;57.196;-2.100;2023-04-06T00:53:29;8.98;88.83
22069;DHT22;13887;57.196;-2.100;2023-04-06T00:55:59;8.97;88.88
22069;DHT22;13887;57.196;-2.100;2023-04-06T00:58:29;8.97;88.73
22069;DHT22;13887;57.196;-2.100;2023-04-06T01:01:03;8.98;88.74
22069;DHT22;13887;57.196;-2.100;2023-04-06T01:03:32;8.97;88.83
22069;DHT22;13887;57.196;-2.100;2023-04-06T01:06:00;8.96;89.13
22069;DHT22;13887;57.196;-2.100;2023-04-06T01:08:34;8.94;89.47
22069;DHT22;13887;57.196;-2.100;2023-04-06T01:11:21;8.93;89.52
22069;DHT22;13887;57.196;-2.100;2023-04-06T01:13:51;8.95;88.83
22069;DHT22;13887;57.196;-2.100;2023-04-06T01:16:53;8.96;89.07
22069;DHT22;13887;57.196;-2.100;2023-04-06T01:19:27;8.94;89.31
22069;DHT22;13887;57.196;-2.100;2023-04-06T01:21:55;8.93;89.51
22069;DHT22;13887;57.196;-2.100;2023-04-06T01:24:32;8.92;89.73
22069;DHT22;13887;57.196;-2.100;2023-04-06T01:27:12;8.93;89.63
22069;DHT22;13887;57.196;-2.100;2023-04-06T01:29:49;8.94;89.44
22069;DHT22;13887;57.196;-2.100;2023-04-06T01:32:38;8.95;89.23
22069;DHT22;13887;57.196;-2.100;2023-04-06T01:35:08;8.95;89.49
22069;DHT22;13887;57.196;-2.100;2023-04-06T01:37:43;8.91;89.94
22069;DHT22;13887;57.196;-2.100;2023-04-06T01:40:15;8.88;90.34
22069;DHT22;13887;57.196;-2.100;2023-04-06T01:42:49;8.86;90.53
22069;DHT22;13887;57.196;-2.100;2023-04-06T01:45:25;8.83;90.69
22069;DHT22;13887;57.196;-2.100;2023-04-06T01:47:57;8.82;90.78
22069;DHT22;13887;57.196;-2.100;2023-04-06T01:50:28;8.85;90.61
22069;DHT22;13887;57.196;-2.100;2023-04-06T01:52:55;8.82;90.84
22069;DHT22;13887;57.196;-2.100;2023-04-06T01:55:24;8.80;90.89
22069;DHT22;13887;57.196;-2.100;2023-04-06T01:58:15;8.75;91.18
22069;DHT22;13887;57.196;-2.100;2023-04-06T02:00:42;8.75;91.05
22069;DHT22;13887;57.196;-2.100;2023-04-06T02:03:10;8.76;91.11
22069;DHT22;13887;57.196;-2.100;2023-04-06T02:05:38;8.76;91.08
22069;DHT22;13887;57.196;-2.100;2023-04-06T02:08:18;8.78;91.02
22069;DHT22;13887;57.196;-2.100;2023-04-06T02:10:45;8.78;90.91
22069;DHT22;13887;57.196;-2.100;2023-04-06T02:13:23;8.80;90.79
22069;DHT22;13887;57.196;-2.100;2023-04-06T02:15:52;8.79;90.80
22069;DHT22;13887;57.196;-2.100;2023-04-06T02:18:20;8.81;90.71
22069;DHT22;13887;57.196;-2.100;2023-04-06T02:20:49;8.79;90.69
22069;DHT22;13887;57.196;-2.100;2023-04-06T02:23:16;8.79;90.72
22069;DHT22;13887;57.196;-2.100;2023-04-06T02:25:44;8.80;90.74
22069;DHT22;13887;57.196;-2.100;2023-04-06T02:28:11;8.81;90.51
22069;DHT22;13887;57.196;-2.100;2023-04-06T02:30:39;8.77;90.60
22069;DHT22;13887;57.196;-2.100;2023-04-06T02:33:06;8.75;90.88
22069;DHT22;13887;57.196;-2.100;2023-04-06T02:35:44;8.75;90.98
22069;DHT22;13887;57.196;-2.100;2023-04-06T02:38:13;8.74;91.00
22069;DHT22;13887;57.196;-2.100;2023-04-06T02:40:40;8.75;91.02
22069;DHT22;13887;57.196;-2.100;2023-04-06T02:43:28;8.74;91.07
22069;DHT22;13887;57.196;-2.100;2023-04-06T02:46:03;8.75;90.95
22069;DHT22;13887;57.196;-2.100;2023-04-06T02:48:34;8.77;90.76
22069;DHT22;13887;57.196;-2.100;2023-04-06T02:51:04;8.78;90.69
22069;DHT22;13887;57.196;-2.100;2023-04-06T02:53:31;8.77;90.74
22069;DHT22;13887;57.196;-2.100;2023-04-06T02:55:59;8.77;90.66
22069;DHT22;13887;57.196;-2.100;2023-04-06T02:58:39;8.77;90.70
22069;DHT22;13887;57.196;-2.100;2023-04-06T03:01:07;8.77;90.88
22069;DHT22;13887;57.196;-2.100;2023-04-06T03:03:38;8.77;90.81
22069;DHT22;13887;57.196;-2.100;2023-04-06T03:06:11;8.79;90.48
22069;DHT22;13887;57.196;-2.100;2023-04-06T03:08:39;8.82;90.17
22069;DHT22;13887;57.196;-2.100;2023-04-06T03:11:06;8.82;90.09
22069;DHT22;13887;57.196;-2.100;2023-04-06T03:13:38;8.85;89.93
22069;DHT22;13887;57.196;-2.100;2023-04-06T03:16:06;8.83;89.89
22069;DHT22;13887;57.196;-2.100;2023-04-06T03:18:34;8.86;89.74
22069;DHT22;13887;57.196;-2.100;2023-04-06T03:21:02;8.86;89.69
22069;DHT22;13887;57.196;-2.100;2023-04-06T03:23:42;8.85;89.69
22069;DHT22;13887;57.196;-2.100;2023-04-06T03:26:12;8.86;89.61
22069;DHT22;13887;57.196;-2.100;2023-04-06T03:28:39;8.86;89.73
22069;DHT22;13887;57.196;-2.100;2023-04-06T03:31:07;8.85;89.69
22069;DHT22;13887;57.196;-2.100;2023-04-06T03:33:41;8.86;89.66
22069;DHT22;13887;57.196;-2.100;2023-04-06T03:36:16;8.86;89.74
22069;DHT22;13887;57.196;-2.100;2023-04-06T03:38:43;8.85;89.72
22069;DHT22;13887;57.196;-2.100;2023-04-06T03:41:13;8.86;89.91
22069;DHT22;13887;57.196;-2.100;2023-04-06T03:43:45;8.85;90.14
22069;DHT22;13887;57.196;-2.100;2023-04-06T03:46:12;8.81;90.44
22069;DHT22;13887;57.196;-2.100;2023-04-06T03:48:40;8.80;90.54
22069;DHT22;13887;57.196;-2.100;2023-04-06T03:51:10;8.80;90.55
22069;DHT22;13887;57.196;-2.100;2023-04-06T03:53:37;8.80;90.72
22069;DHT22;13887;57.196;-2.100;2023-04-06T03:56:08;8.81;90.41
22069;DHT22;13887;57.196;-2.100;2023-04-06T03:58:35;8.83;90.00
22069;DHT22;13887;57.196;-2.100;2023-04-06T04:01:03;8.85;89.76
22069;DHT22;13887;57.196;-2.100;2023-04-06T04:03:30;8.86;89.69
22069;DHT22;13887;57.196;-2.100;2023-04-06T04:05:58;8.82;90.00
22069;DHT22;13887;57.196;-2.100;2023-04-06T04:08:27;8.85;89.66
22069;DHT22;13887;57.196;-2.100;2023-04-06T04:10:56;8.88;89.46
22069;DHT22;13887;57.196;-2.100;2023-04-06T04:13:24;8.85;89.80
22069;DHT22;13887;57.196;-2.100;2023-04-06T04:15:51;8.83;90.02
22069;DHT22;13887;57.196;-2.100;2023-04-06T04:18:19;8.86;89.79
22069;DHT22;13887;57.196;-2.100;2023-04-06T04:20:47;8.86;89.55
22069;DHT22;13887;57.196;-2.100;2023-04-06T04:23:14;8.88;89.66
22069;DHT22;13887;57.196;-2.100;2023-04-06T04:25:43;8.89;89.61
22069;DHT22;13887;57.196;-2.100;2023-04-06T04:28:10;8.87;89.98
22069;DHT22;13887;57.196;-2.100;2023-04-06T04:30:40;8.88;89.95
22069;DHT22;13887;57.196;-2.100;2023-04-06T04:33:10;8.90;89.87
22069;DHT22;13887;57.196;-2.100;2023-04-06T04:35:37;8.91;89.68
22069;DHT22;13887;57.196;-2.100;2023-04-06T04:38:06;8.92;89.85
22069;DHT22;13887;57.196;-2.100;2023-04-06T04:40:39;8.93;89.78
22069;DHT22;13887;57.196;-2.100;2023-04-06T04:43:08;8.91;90.17
22069;DHT22;13887;57.196;-2.100;2023-04-06T04:45:35;8.92;90.12
22069;DHT22;13887;57.196;-2.100;2023-04-06T04:48:26;8.94;90.25
22069;DHT22;13887;57.196;-2.100;2023-04-06T04:51:00;8.92;90.34
22069;DHT22;13887;57.196;-2.100;2023-04-06T04:53:39;8.93;90.16
22069;DHT22;13887;57.196;-2.100;2023-04-06T04:56:15;8.93;90.03
22069;DHT22;13887;57.196;-2.100;2023-04-06T04:58:44;8.94;89.89
22069;DHT22;13887;57.196;-2.100;2023-04-06T05:01:12;8.96;89.64
22069;DHT22;13887;57.196;-2.100;2023-04-06T05:03:41;8.95;90.00
22069;DHT22;13887;57.196;-2.100;2023-04-06T05:06:12;8.96;89.91
22069;DHT22;13887;57.196;-2.100;2023-04-06T05:08:41;8.96;89.92
22069;DHT22;13887;57.196;-2.100;2023-04-06T05:11:09;8.96;90.05
22069;DHT22;13887;57.196;-2.100;2023-04-06T05:13:42;8.95;90.31
22069;DHT22;13887;57.196;-2.100;2023-04-06T05:16:20;8.96;90.48
22069;DHT22;13887;57.196;-2.100;2023-04-06T05:18:49;8.97;90.64
22069;DHT22;13887;57.196;-2.100;2023-04-06T05:21:18;8.95;90.57
22069;DHT22;13887;57.196;-2.100;2023-04-06T05:23:56;8.96;90.52
22069;DHT22;13887;57.196;-2.100;2023-04-06T05:26:24;8.97;90.25
22069;DHT22;13887;57.196;-2.100;2023-04-06T05:28:55;8.96;90.50
22069;DHT22;13887;57.196;-2.100;2023-04-06T05:31:24;8.97;90.47
22069;DHT22;13887;57.196;-2.100;2023-04-06T05:33:52;8.96;90.50
22069;DHT22;13887;57.196;-2.100;2023-04-06T05:36:35;8.97;90.57
22069;DHT22;13887;57.196;-2.100;2023-04-06T05:39:08;8.98;90.13
22069;DHT22;13887;57.196;-2.100;2023-04-06T05:41:49;8.98;90.26
22069;DHT22;13887;57.196;-2.100;2023-04-06T05:44:26;8.97;90.41
22069;DHT22;13887;57.196;-2.100;2023-04-06T05:47:02;9.00;90.63
22069;DHT22;13887;57.196;-2.100;2023-04-06T05:49:30;8.98;90.67
22069;DHT22;13887;57.196;-2.100;2023-04-06T05:51:57;9.00;90.57
22069;DHT22;13887;57.196;-2.100;2023-04-06T05:54:29;9.01;91.11
22069;DHT22;13887;57.196;-2.100;2023-04-06T05:57:01;9.01;91.27
22069;DHT22;13887;57.196;-2.100;2023-04-06T05:59:33;9.00;90.82
22069;DHT22;13887;57.196;-2.100;2023-04-06T06:02:00;8.97;90.97
22069;DHT22;13887;57.196;-2.100;2023-04-06T06:04:35;8.97;90.92
22069;DHT22;13887;57.196;-2.100;2023-04-06T06:07:02;9.02;90.99
22069;DHT22;13887;57.196;-2.100;2023-04-06T06:09:42;8.98;91.34
22069;DHT22;13887;57.196;-2.100;2023-04-06T06:12:20;9.00;91.21
22069;DHT22;13887;57.196;-2.100;2023-04-06T06:14:49;8.98;91.10
22069;DHT22;13887;57.196;-2.100;2023-04-06T06:17:17;9.00;91.16
22069;DHT22;13887;57.196;-2.100;2023-04-06T06:19:47;8.98;91.19
22069;DHT22;13887;57.196;-2.100;2023-04-06T06:22:15;9.00;91.10
22069;DHT22;13887;57.196;-2.100;2023-04-06T06:24:45;9.00;91.23
22069;DHT22;13887;57.196;-2.100;2023-04-06T06:27:14;8.98;91.12
22069;DHT22;13887;57.196;-2.100;2023-04-06T06:29:41;9.01;90.89
22069;DHT22;13887;57.196;-2.100;2023-04-06T06:32:09;9.01;90.70
22069;DHT22;13887;57.196;-2.100;2023-04-06T06:34:38;9.01;90.84
22069;DHT22;13887;57.196;-2.100;2023-04-06T06:37:07;9.02;91.02
22069;DHT22;13887;57.196;-2.100;2023-04-06T06:39:36;9.01;90.89
22069;DHT22;13887;57.196;-2.100;2023-04-06T06:42:04;9.03;91.18
22069;DHT22;13887;57.196;-2.100;2023-04-06T06:45:02;9.01;91.07
22069;DHT22;13887;57.196;-2.100;2023-04-06T06:47:30;9.00;91.00
22069;DHT22;13887;57.196;-2.100;2023-04-06T06:49:58;9.03;90.82
22069;DHT22;13887;57.196;-2.100;2023-04-06T06:52:25;9.02;91.02
22069;DHT22;13887;57.196;-2.100;2023-04-06T06:54:52;9.02;91.30
22069;DHT22;13887;57.196;-2.100;2023-04-06T06:57:23;9.02;91.34
22069;DHT22;13887;57.196;-2.100;2023-04-06T06:59:51;9.03;91.10
22069;DHT22;13887;57.196;-2.100;2023-04-06T07:02:20;9.03;91.08
22069;DHT22;13887;57.196;-2.100;2023-04-06T07:04:48;9.04;91.06
22069;DHT22;13887;57.196;-2.100;2023-04-06T07:07:17;9.02;91.43
22069;DHT22;13887;57.196;-2.100;2023-04-06T07:09:44;9.04;91.28
22069;DHT22;13887;57.196;-2.100;2023-04-06T07:12:11;9.11;93.03
22069;DHT22;13887;57.196;-2.100;2023-04-06T07:14:39;9.09;92.77
22069;DHT22;13887;57.196;-2.100;2023-04-06T07:17:06;9.10;92.37
22069;DHT22;13887;57.196;-2.100;2023-04-06T07:19:34;9.10;91.56
22069;DHT22;13887;57.196;-2.100;2023-04-06T07:22:01;9.11;91.85
22069;DHT22;13887;57.196;-2.100;2023-04-06T07:24:30;9.09;91.65
22069;DHT22;13887;57.196;-2.100;2023-04-06T07:26:59;9.14;91.53
22069;DHT22;13887;57.196;-2.100;2023-04-06T07:29:30;9.12;91.76
22069;DHT22;13887;57.196;-2.100;2023-04-06T07:31:57;9.10;91.86
22069;DHT22;13887;57.196;-2.100;2023-04-06T07:34:25;9.09;92.08
22069;DHT22;13887;57.196;-2.100;2023-04-06T07:36:53;9.08;92.18
22069;DHT22;13887;57.196;-2.100;2023-04-06T07:39:21;9.08;91.82
22069;DHT22;13887;57.196;-2.100;2023-04-06T07:41:51;9.10;92.14
22069;DHT22;13887;57.196;-2.100;2023-04-06T07:44:18;9.10;91.76
22069;DHT22;13887;57.196;-2.100;2023-04-06T07:46:46;9.08;91.80
22069;DHT22;13887;57.196;-2.100;2023-04-06T07:49:14;9.09;91.66
22069;DHT22;13887;57.196;-2.100;2023-04-06T07:51:42;9.10;91.69
22069;DHT22;13887;57.196;-2.100;2023-04-06T07:54:09;9.08;91.50
22069;DHT22;13887;57.196;-2.100;2023-04-06T07:56:37;9.07;91.85
22069;DHT22;13887;57.196;-2.100;2023-04-06T07:59:04;9.08;91.45
22069;DHT22;13887;57.196;-2.100;2023-04-06T08:01:31;9.08;91.85
22069;DHT22;13887;57.196;-2.100;2023-04-06T08:03:59;9.08;91.76
22069;DHT22;13887;57.196;-2.100;2023-04-06T08:06:29;9.08;91.51
22069;DHT22;13887;57.196;-2.100;2023-04-06T08:08:57;9.10;91.61
22069;DHT22;13887;57.196;-2.100;2023-04-06T08:11:24;9.09;91.65
22069;DHT22;13887;57.196;-2.100;2023-04-06T08:13:54;9.10;91.37
22069;DHT22;13887;57.196;-2.100;2023-04-06T08:16:25;9.09;91.62
22069;DHT22;13887;57.196;-2.100;2023-04-06T08:18:52;9.06;92.02
22069;DHT22;13887;57.196;-2.100;2023-04-06T08:21:19;9.09;91.98
22069;DHT22;13887;57.196;-2.100;2023-04-06T08:23:47;9.07;91.90
22069;DHT22;13887;57.196;-2.100;2023-04-06T08:26:16;9.09;91.87
22069;DHT22;13887;57.196;-2.100;2023-04-06T08:28:43;9.07;91.76
22069;DHT22;13887;57.196;-2.100;2023-04-06T08:31:12;9.08;91.99
22069;DHT22;13887;57.196;-2.100;2023-04-06T08:33:40;9.08;92.10
22069;DHT22;13887;57.196;-2.100;2023-04-06T08:36:11;9.05;92.14
22069;DHT22;13887;57.196;-2.100;2023-04-06T08:38:39;9.07;92.27
22069;DHT22;13887;57.196;-2.100;2023-04-06T08:41:11;9.07;92.17
22069;DHT22;13887;57.196;-2.100;2023-04-06T08:43:51;9.07;91.87
22069;DHT22;13887;57.196;-2.100;2023-04-06T08:46:21;9.08;92.08
22069;DHT22;13887;57.196;-2.100;2023-04-06T08:48:48;9.08;91.79
22069;DHT22;13887;57.196;-2.100;2023-04-06T08:51:19;9.09;91.76
22069;DHT22;13887;57.196;-2.100;2023-04-06T08:53:47;9.08;92.00
22069;DHT22;13887;57.196;-2.100;2023-04-06T08:56:16;9.06;91.72
22069;DHT22;13887;57.196;-2.100;2023-04-06T08:58:44;9.08;91.77
22069;DHT22;13887;57.196;-2.100;2023-04-06T09:01:13;9.07;91.45
22069;DHT22;13887;57.196;-2.100;2023-04-06T09:03:42;9.07;91.98
22069;DHT22;13887;57.196;-2.100;2023-04-06T09:06:11;9.06;91.94
22069;DHT22;13887;57.196;-2.100;2023-04-06T09:08:41;9.08;91.69
22069;DHT22;13887;57.196;-2.100;2023-04-06T09:11:08;9.07;91.43
22069;DHT22;13887;57.196;-2.100;2023-04-06T09:13:50;9.09;91.25
22069;DHT22;13887;57.196;-2.100;2023-04-06T09:16:18;9.09;91.00
22069;DHT22;13887;57.196;-2.100;2023-04-06T09:18:47;9.03;91.02
22069;DHT22;13887;57.196;-2.100;2023-04-06T09:21:17;9.04;91.18
22069;DHT22;13887;57.196;-2.100;2023-04-06T09:23:45;9.04;91.76
22069;DHT22;13887;57.196;-2.100;2023-04-06T09:26:18;9.02;91.51
22069;DHT22;13887;57.196;-2.100;2023-04-06T09:28:53;9.04;91.50
22069;DHT22;13887;57.196;-2.100;2023-04-06T09:31:26;9.04;91.53
22069;DHT22;13887;57.196;-2.100;2023-04-06T09:33:54;9.06;91.19
22069;DHT22;13887;57.196;-2.100;2023-04-06T09:36:33;9.05;91.16
22069;DHT22;13887;57.196;-2.100;2023-04-06T09:39:05;9.04;91.16
22069;DHT22;13887;57.196;-2.100;2023-04-06T09:41:35;9.06;91.10
22069;DHT22;13887;57.196;-2.100;2023-04-06T09:44:07;9.08;90.57
22069;DHT22;13887;57.196;-2.100;2023-04-06T09:46:39;9.07;90.67
22069;DHT22;13887;57.196;-2.100;2023-04-06T09:49:30;9.06;90.71
22069;DHT22;13887;57.196;-2.100;2023-04-06T09:52:06;9.05;90.64
22069;DHT22;13887;57.196;-2.100;2023-04-06T09:54:35;9.04;90.84
22069;DHT22;13887;57.196;-2.100;2023-04-06T09:57:25;9.05;90.44
22069;DHT22;13887;57.196;-2.100;2023-04-06T10:00:13;9.06;90.19
22069;DHT22;13887;57.196;-2.100;2023-04-06T10:03:04;9.05;89.88
22069;DHT22;13887;57.196;-2.100;2023-04-06T10:05:43;9.05;89.75
22069;DHT22;13887;57.196;-2.100;2023-04-06T10:08:13;9.05;89.88
22069;DHT22;13887;57.196;-2.100;2023-04-06T10:10:41;9.05;90.20
22069;DHT22;13887;57.196;-2.100;2023-04-06T10:13:10;9.07;89.89
22069;DHT22;13887;57.196;-2.100;2023-04-06T10:15:38;9.07;89.50
22069;DHT22;13887;57.196;-2.100;2023-04-06T10:18:09;9.06;89.30
22069;DHT22;13887;57.196;-2.100;2023-04-06T10:23:19;9.06;89.08
22069;DHT22;13887;57.196;-2.100;2023-04-06T10:25:56;9.07;89.21
22069;DHT22;13887;57.196;-2.100;2023-04-06T10:28:24;9.02;89.22
22069;DHT22;13887;57.196;-2.100;2023-04-06T10:31:00;9.00;89.38
22069;DHT22;13887;57.196;-2.100;2023-04-06T10:33:28;9.03;89.17
22069;DHT22;13887;57.196;-2.100;2023-04-06T10:35:55;9.03;88.82
22069;DHT22;13887;57.196;-2.100;2023-04-06T10:38:37;9.03;88.88
22069;DHT22;13887;57.196;-2.100;2023-04-06T10:41:09;9.04;88.89
22069;DHT22;13887;57.196;-2.100;2023-04-06T10:43:41;9.06;88.99
22069;DHT22;13887;57.196;-2.100;2023-04-06T10:46:09;9.06;89.06
22069;DHT22;13887;57.196;-2.100;2023-04-06T10:48:42;9.05;89.20
22069;DHT22;13887;57.196;-2.100;2023-04-06T10:51:11;9.05;89.40
22069;DHT22;13887;57.196;-2.100;2023-04-06T10:53:41;9.06;89.41
22069;DHT22;13887;57.196;-2.100;2023-04-06T10:56:13;9.08;89.41
22069;DHT22;13887;57.196;-2.100;2023-04-06T10:58:52;9.07;89.02
22069;DHT22;13887;57.196;-2.100;2023-04-06T11:01:21;9.07;89.38
22069;DHT22;13887;57.196;-2.100;2023-04-06T11:03:53;9.10;89.44
22069;DHT22;13887;57.196;-2.100;2023-04-06T11:06:23;9.12;89.54
22069;DHT22;13887;57.196;-2.100;2023-04-06T11:08:53;9.10;89.50
22069;DHT22;13887;57.196;-2.100;2023-04-06T11:11:22;9.14;89.31
22069;DHT22;13887;57.196;-2.100;2023-04-06T11:13:51;9.12;89.46
22069;DHT22;13887;57.196;-2.100;2023-04-06T11:16:23;9.12;89.28
22069;DHT22;13887;57.196;-2.100;2023-04-06T11:24:06;9.14;88.96
22069;DHT22;13887;57.196;-2.100;2023-04-06T11:26:46;9.12;88.83
22069;DHT22;13887;57.196;-2.100;2023-04-06T11:29:18;9.11;88.76
22069;DHT22;13887;57.196;-2.100;2023-04-06T11:31:50;9.12;88.75
22069;DHT22;13887;57.196;-2.100;2023-04-06T11:34:19;9.15;88.55
22069;DHT22;13887;57.196;-2.100;2023-04-06T11:36:48;9.15;88.86
22069;DHT22;13887;57.196;-2.100;2023-04-06T11:39:23;9.16;88.76
22069;DHT22;13887;57.196;-2.100;2023-04-06T11:41:53;9.11;88.80
22069;DHT22;13887;57.196;-2.100;2023-04-06T11:44:35;9.14;88.16
22069;DHT22;13887;57.196;-2.100;2023-04-06T11:47:05;9.12;88.09
22069;DHT22;13887;57.196;-2.100;2023-04-06T11:49:36;9.14;87.69
22069;DHT22;13887;57.196;-2.100;2023-04-06T11:54:45;9.15;87.94
22069;DHT22;13887;57.196;-2.100;2023-04-06T11:57:15;9.17;87.97
22069;DHT22;13887;57.196;-2.100;2023-04-06T11:59:43;9.16;88.36
22069;DHT22;13887;57.196;-2.100;2023-04-06T12:02:11;9.14;88.27
22069;DHT22;13887;57.196;-2.100;2023-04-06T12:04:38;9.15;88.83
22069;DHT22;13887;57.196;-2.100;2023-04-06T12:07:06;9.14;89.01
22069;DHT22;13887;57.196;-2.100;2023-04-06T12:09:33;9.12;89.40
22069;DHT22;13887;57.196;-2.100;2023-04-06T12:12:03;9.12;89.65
22069;DHT22;13887;57.196;-2.100;2023-04-06T12:14:30;9.12;89.39
22069;DHT22;13887;57.196;-2.100;2023-04-06T12:16:58;9.14;88.98
22069;DHT22;13887;57.196;-2.100;2023-04-06T12:19:25;9.12;88.89
22069;DHT22;13887;57.196;-2.100;2023-04-06T12:21:56;9.11;89.08
22069;DHT22;13887;57.196;-2.100;2023-04-06T12:24:24;9.15;88.38
22069;DHT22;13887;57.196;-2.100;2023-04-06T12:26:53;9.16;87.95
22069;DHT22;13887;57.196;-2.100;2023-04-06T12:29:35;9.15;88.46
22069;DHT22;13887;57.196;-2.100;2023-04-06T12:32:03;9.16;88.65
22069;DHT22;13887;57.196;-2.100;2023-04-06T12:34:30;9.17;88.21
22069;DHT22;13887;57.196;-2.100;2023-04-06T12:36:58;9.19;88.13
22069;DHT22;13887;57.196;-2.100;2023-04-06T12:39:27;9.18;88.84
22069;DHT22;13887;57.196;-2.100;2023-04-06T12:41:55;9.21;88.61
22069;DHT22;13887;57.196;-2.100;2023-04-06T12:44:24;9.20;88.96
22069;DHT22;13887;57.196;-2.100;2023-04-06T12:46:52;9.22;88.59
22069;DHT22;13887;57.196;-2.100;2023-04-06T12:49:23;9.23;88.71
22069;DHT22;13887;57.196;-2.100;2023-04-06T12:51:50;9.27;88.86
22069;DHT22;13887;57.196;-2.100;2023-04-06T12:54:17;9.27;89.33
22069;DHT22;13887;57.196;-2.100;2023-04-06T12:56:45;9.27;89.63
22069;DHT22;13887;57.196;-2.100;2023-04-06T12:59:12;9.30;89.49
22069;DHT22;13887;57.196;-2.100;2023-04-06T13:01:41;9.32;88.94
22069;DHT22;13887;57.196;-2.100;2023-04-06T13:04:08;9.32;89.05
22069;DHT22;13887;57.196;-2.100;2023-04-06T13:06:35;9.32;89.14
22069;DHT22;13887;57.196;-2.100;2023-04-06T13:09:02;9.32;88.93
22069;DHT22;13887;57.196;-2.100;2023-04-06T13:11:31;9.33;88.68
22069;DHT22;13887;57.196;-2.100;2023-04-06T13:13:58;9.30;88.69
22069;DHT22;13887;57.196;-2.100;2023-04-06T13:16:25;9.33;88.57
22069;DHT22;13887;57.196;-2.100;2023-04-06T13:18:52;9.34;89.01
22069;DHT22;13887;57.196;-2.100;2023-04-06T13:21:20;9.37;88.47
22069;DHT22;13887;57.196;-2.100;2023-04-06T13:23:47;9.38;88.38
22069;DHT22;13887;57.196;-2.100;2023-04-06T13:26:15;9.38;88.31
22069;DHT22;13887;57.196;-2.100;2023-04-06T13:28:43;9.38;88.69
22069;DHT22;13887;57.196;-2.100;2023-04-06T13:31:11;9.39;88.36
22069;DHT22;13887;57.196;-2.100;2023-04-06T13:33:38;9.37;88.64
22069;DHT22;13887;57.196;-2.100;2023-04-06T13:36:07;9.36;88.70
22069;DHT22;13887;57.196;-2.100;2023-04-06T13:38:35;9.33;88.78
22069;DHT22;13887;57.196;-2.100;2023-04-06T13:41:05;9.34;88.75
22069;DHT22;13887;57.196;-2.100;2023-04-06T13:43:33;9.35;88.69
22069;DHT22;13887;57.196;-2.100;2023-04-06T13:46:00;9.35;89.12
22069;DHT22;13887;57.196;-2.100;2023-04-06T13:48:28;9.35;88.73
22069;DHT22;13887;57.196;-2.100;2023-04-06T13:50:55;9.31;89.36
22069;DHT22;13887;57.196;-2.100;2023-04-06T13:53:22;9.31;89.55
22069;DHT22;13887;57.196;-2.100;2023-04-06T13:55:54;9.32;89.28
22069;DHT22;13887;57.196;-2.100;2023-04-06T13:58:21;9.33;89.27
22069;DHT22;13887;57.196;-2.100;2023-04-06T14:00:48;9.35;89.82
22069;DHT22;13887;57.196;-2.100;2023-04-06T14:03:15;9.36;89.78
22069;DHT22;13887;57.196;-2.100;2023-04-06T14:05:48;9.32;90.12
22069;DHT22;13887;57.196;-2.100;2023-04-06T14:08:15;9.32;90.86
22069;DHT22;13887;57.196;-2.100;2023-04-06T14:10:43;9.27;90.73
22069;DHT22;13887;57.196;-2.100;2023-04-06T14:13:10;9.24;91.06
22069;DHT22;13887;57.196;-2.100;2023-04-06T14:15:37;9.22;91.24
22069;DHT22;13887;57.196;-2.100;2023-04-06T14:18:04;9.19;91.41
22069;DHT22;13887;57.196;-2.100;2023-04-06T14:20:33;9.22;90.96
22069;DHT22;13887;57.196;-2.100;2023-04-06T14:23:03;9.22;90.99
22069;DHT22;13887;57.196;-2.100;2023-04-06T14:25:30;9.24;90.85
22069;DHT22;13887;57.196;-2.100;2023-04-06T14:27:59;9.22;90.80
22069;DHT22;13887;57.196;-2.100;2023-04-06T14:30:26;9.26;89.93
22069;DHT22;13887;57.196;-2.100;2023-04-06T14:32:57;9.25;90.39
22069;DHT22;13887;57.196;-2.100;2023-04-06T14:35:25;9.27;90.38
22069;DHT22;13887;57.196;-2.100;2023-04-06T14:37:55;9.31;90.29
22069;DHT22;13887;57.196;-2.100;2023-04-06T14:40:25;9.33;90.26
22069;DHT22;13887;57.196;-2.100;2023-04-06T14:42:53;9.33;90.24
22069;DHT22;13887;57.196;-2.100;2023-04-06T14:45:22;9.31;89.38
22069;DHT22;13887;57.196;-2.100;2023-04-06T14:47:49;9.31;89.40
22069;DHT22;13887;57.196;-2.100;2023-04-06T14:50:17;9.27;89.12
22069;DHT22;13887;57.196;-2.100;2023-04-06T14:52:44;9.26;89.66
22069;DHT22;13887;57.196;-2.100;2023-04-06T14:55:13;9.29;89.97
22069;DHT22;13887;57.196;-2.100;2023-04-06T14:57:41;9.33;89.61
22069;DHT22;13887;57.196;-2.100;2023-04-06T15:00:09;9.33;89.75
22069;DHT22;13887;57.196;-2.100;2023-04-06T15:02:36;9.34;89.73
22069;DHT22;13887;57.196;-2.100;2023-04-06T15:05:05;9.36;88.92
22069;DHT22;13887;57.196;-2.100;2023-04-06T15:07:33;9.39;88.44
22069;DHT22;13887;57.196;-2.100;2023-04-06T15:10:00;9.35;88.54
22069;DHT22;13887;57.196;-2.100;2023-04-06T15:12:27;9.35;87.98
22069;DHT22;13887;57.196;-2.100;2023-04-06T15:14:56;9.36;88.25
22069;DHT22;13887;57.196;-2.100;2023-04-06T15:17:24;9.36;87.82
22069;DHT22;13887;57.196;-2.100;2023-04-06T15:19:53;9.38;87.47
22069;DHT22;13887;57.196;-2.100;2023-04-06T15:22:21;9.40;86.75
22069;DHT22;13887;57.196;-2.100;2023-04-06T15:24:48;9.36;86.96
22069;DHT22;13887;57.196;-2.100;2023-04-06T15:27:18;9.35;86.39
22069;DHT22;13887;57.196;-2.100;2023-04-06T15:29:45;9.36;86.58
22069;DHT22;13887;57.196;-2.100;2023-04-06T15:32:12;9.36;86.21
22069;DHT22;13887;57.196;-2.100;2023-04-06T15:34:42;9.34;86.65
22069;DHT22;13887;57.196;-2.100;2023-04-06T15:37:09;9.36;86.57
22069;DHT22;13887;57.196;-2.100;2023-04-06T15:39:36;9.35;86.46
22069;DHT22;13887;57.196;-2.100;2023-04-06T15:42:03;9.37;85.96
22069;DHT22;13887;57.196;-2.100;2023-04-06T15:44:31;9.37;86.15
22069;DHT22;13887;57.196;-2.100;2023-04-06T15:46:59;9.35;85.76
22069;DHT22;13887;57.196;-2.100;2023-04-06T15:49:26;9.36;85.69
22069;DHT22;13887;57.196;-2.100;2023-04-06T15:51:55;9.35;86.21
22069;DHT22;13887;57.196;-2.100;2023-04-06T15:54:22;9.34;86.13
22069;DHT22;13887;57.196;-2.100;2023-04-06T15:56:49;9.33;86.55
22069;DHT22;13887;57.196;-2.100;2023-04-06T15:59:17;9.24;87.43